Levante — 9HOB7 — position and weather

sailwx.info

Track history (hours):
 
Tides and Currents Weather Stations Pressure Air Temp Water Temp Dewpoint Dewpoint Depression Visibility Wind Speed Wind Dir Waves Ship Positions

Levante

Last reported at 2018-Jan-18 11:56 UTC. Time now 2018-Jan-23 13:48 UTC.
Position N 33°40' E 129°50'.

Length 188.3 m; beam 28 m; draft 10.1 m.

Type: Cargo ship. MMSI: 215440000.

Date/timePositionNaut miles runAvg speedWind from/ knotsBaromVisibWave heightAir tempDewpointWater temp
2018-Jan-18 11:56N 33°40' E 129°50'1013.2
2018-Jan-18 11:11N 33°43' E 130°02'213.6
2018-Jan-18 11:00N 33°43' E 130°05'713.2
2018-Jan-18 10:30N 33°44' E 130°13'611.7
2018-Jan-18 10:00N 33°39' E 130°17'510.1
2018-Jan-18 09:30N 33°37' E 130°22'2 3.6
2018-Jan-18 09:00N 33°38' E 130°24'0 0.0
2018-Jan-18 08:25N 33°38' E 130°24'0 0.0
2018-Jan-18 07:55N 33°38' E 130°24'0 0.0
2018-Jan-18 07:25N 33°38' E 130°24'0 0.1
2018-Jan-18 06:55N 33°38' E 130°24'0 0.1
2018-Jan-18 06:25N 33°38' E 130°24'0 0.0
2018-Jan-18 05:55N 33°38' E 130°24'0 0.0
2018-Jan-18 05:25N 33°38' E 130°24'0 0.1
2018-Jan-18 04:55N 33°38' E 130°24'0 0.1
2018-Jan-18 04:25N 33°38' E 130°24'0 0.0
2018-Jan-18 03:55N 33°38' E 130°24'0 0.1
2018-Jan-18 03:25N 33°38' E 130°24'0 0.1
2018-Jan-18 02:55N 33°38' E 130°24'0 0.1
2018-Jan-18 02:25N 33°38' E 130°24'0 0.1
2018-Jan-18 01:55N 33°38' E 130°24'0 0.0
2018-Jan-18 01:25N 33°38' E 130°24'0 0.1
2018-Jan-18 00:55N 33°38' E 130°24'0 0.1
2018-Jan-17 23:55N 33°38' E 130°24'  
2018-Jan-12 14:58N 33°39' E 130°15'0 0.0
2018-Jan-12 14:30N 33°39' E 130°15'0 0.0
2018-Jan-12 14:00N 33°39' E 130°15'0 0.6
2018-Jan-12 13:30N 33°39' E 130°16'4 8.3
2018-Jan-12 13:00N 33°43' E 130°14'612.7
2018-Jan-12 12:30N 33°44' E 130°06'713.3
2018-Jan-12 12:00N 33°42' E 129°59'713.5
2018-Jan-12 11:30N 33°40' E 129°51'713.4
2018-Jan-12 11:00N 33°38' E 129°43'48611.0
2018-Jan-10 14:53N 38°42' E 121°54'1013.4
2018-Jan-10 14:09N 38°50' E 121°46'11 0.8
2018-Jan-09 23:49N 39°01' E 121°45'0 0.0
2018-Jan-09 23:23N 39°01' E 121°45'0 0.0
2018-Jan-09 22:29N 39°01' E 121°45'  
Track history (hours):
 
Tides and Currents Weather Stations Pressure Air Temp Water Temp Dewpoint Dewpoint Depression Visibility Wind Speed Wind Dir Waves Ship Positions

Levante

Last reported at 2018-Jan-18 11:56 UTC. Time now 2018-Jan-23 13:48 UTC.
Position N 33°40' E 129°50'.

Length 188.3 m; beam 28 m; draft 10.1 m.

Type: Cargo ship. MMSI: 215440000.

Date/timePositionNaut miles runAvg speedWind from/ knotsBaromVisibWave heightAir tempDewpointWater temp
2018-Jan-18 11:56N 33°40' E 129°50'1013.2
2018-Jan-18 11:11N 33°43' E 130°02'213.6
2018-Jan-18 11:00N 33°43' E 130°05'713.2
2018-Jan-18 10:30N 33°44' E 130°13'611.7
2018-Jan-18 10:00N 33°39' E 130°17'510.1
2018-Jan-18 09:30N 33°37' E 130°22'2 3.6
2018-Jan-18 09:00N 33°38' E 130°24'0 0.0
2018-Jan-18 08:25N 33°38' E 130°24'0 0.0
2018-Jan-18 07:55N 33°38' E 130°24'0 0.0
2018-Jan-18 07:25N 33°38' E 130°24'0 0.1
2018-Jan-18 06:55N 33°38' E 130°24'0 0.1
2018-Jan-18 06:25N 33°38' E 130°24'0 0.0
2018-Jan-18 05:55N 33°38' E 130°24'0 0.0
2018-Jan-18 05:25N 33°38' E 130°24'0 0.1
2018-Jan-18 04:55N 33°38' E 130°24'0 0.1
2018-Jan-18 04:25N 33°38' E 130°24'0 0.0
2018-Jan-18 03:55N 33°38' E 130°24'0 0.1
2018-Jan-18 03:25N 33°38' E 130°24'0 0.1
2018-Jan-18 02:55N 33°38' E 130°24'0 0.1
2018-Jan-18 02:25N 33°38' E 130°24'0 0.1
2018-Jan-18 01:55N 33°38' E 130°24'0 0.0
2018-Jan-18 01:25N 33°38' E 130°24'0 0.1
2018-Jan-18 00:55N 33°38' E 130°24'0 0.1
2018-Jan-17 23:55N 33°38' E 130°24'  
2018-Jan-12 14:58N 33°39' E 130°15'0 0.0
2018-Jan-12 14:30N 33°39' E 130°15'0 0.0
2018-Jan-12 14:00N 33°39' E 130°15'0 0.6
2018-Jan-12 13:30N 33°39' E 130°16'4 8.3
2018-Jan-12 13:00N 33°43' E 130°14'612.7
2018-Jan-12 12:30N 33°44' E 130°06'713.3
2018-Jan-12 12:00N 33°42' E 129°59'713.5
2018-Jan-12 11:30N 33°40' E 129°51'713.4
2018-Jan-12 11:00N 33°38' E 129°43'48611.0
2018-Jan-10 14:53N 38°42' E 121°54'1013.4
2018-Jan-10 14:09N 38°50' E 121°46'11 0.8
2018-Jan-09 23:49N 39°01' E 121°45'0 0.0
2018-Jan-09 23:23N 39°01' E 121°45'0 0.0
2018-Jan-09 22:29N 39°01' E 121°45'  

Dump ship's entire track history